createdAt,value
2022-10-05T00:00:25.794Z,9.309162
2022-10-05T00:01:25.863Z,9.309100
2022-10-05T00:02:25.735Z,9.309060
2022-10-05T00:03:25.654Z,9.309053
2022-10-05T00:04:25.663Z,9.308951
2022-10-05T00:05:25.766Z,9.309020
2022-10-05T00:06:25.669Z,9.309027
2022-10-05T00:07:25.654Z,9.308999
2022-10-05T00:08:25.635Z,9.309047
2022-10-05T00:09:25.625Z,9.309072
2022-10-05T00:10:25.622Z,9.309114
2022-10-05T00:11:25.636Z,9.309207
2022-10-05T00:12:25.744Z,9.309092
2022-10-05T00:13:25.731Z,9.309080
2022-10-05T00:14:25.643Z,9.309104
2022-10-05T00:15:25.734Z,9.309107
2022-10-05T00:16:25.819Z,9.309147
2022-10-05T00:17:25.751Z,9.309167
2022-10-05T00:18:25.650Z,9.309183
2022-10-05T00:19:25.629Z,9.309153
2022-10-05T00:20:25.643Z,9.309088
2022-10-05T00:21:25.900Z,9.309065
2022-10-05T00:22:25.629Z,9.309057
2022-10-05T00:23:25.809Z,9.309174
2022-10-05T00:24:25.505Z,9.309196
2022-10-05T00:25:25.506Z,9.309124
2022-10-05T00:26:25.564Z,9.309117
2022-10-05T00:27:25.555Z,9.309081
2022-10-05T00:28:25.763Z,9.309078
2022-10-05T00:29:25.490Z,9.309102
2022-10-05T00:30:25.533Z,9.309107
2022-10-05T00:31:25.627Z,9.309175
2022-10-05T00:32:25.534Z,9.309140
2022-10-05T00:33:25.520Z,9.309094
2022-10-05T00:34:25.602Z,9.309052
2022-10-05T00:35:25.585Z,9.309094
2022-10-05T00:36:26.546Z,9.309128
2022-10-05T00:37:25.784Z,9.309140
2022-10-05T00:38:25.659Z,9.309128
2022-10-05T00:39:25.493Z,9.309118
2022-10-05T00:40:25.496Z,9.309113
2022-10-05T00:41:25.497Z,9.309098
2022-10-05T00:42:25.447Z,9.309081
2022-10-05T00:43:25.460Z,9.309089
2022-10-05T00:44:25.393Z,9.309084
2022-10-05T00:45:25.567Z,9.309064
2022-10-05T00:46:25.493Z,9.309058
2022-10-05T00:47:25.378Z,9.309083
2022-10-05T00:48:25.442Z,9.309083
2022-10-05T00:49:25.469Z,9.309124
2022-10-05T00:50:25.441Z,9.309141
2022-10-05T00:51:25.417Z,9.309153
2022-10-05T00:52:25.498Z,9.309103
2022-10-05T00:53:25.394Z,9.309101
2022-10-05T00:54:25.385Z,9.309083
2022-10-05T00:55:25.383Z,9.309002
2022-10-05T00:56:25.363Z,9.308935
2022-10-05T00:57:25.368Z,9.308943
2022-10-05T00:58:25.359Z,9.309020
2022-10-05T00:59:25.395Z,9.309106
2022-10-05T01:00:25.381Z,9.309102
2022-10-05T01:01:25.530Z,9.309093
2022-10-05T01:02:25.466Z,9.309040
2022-10-05T01:03:25.263Z,9.309054
2022-10-05T01:04:25.208Z,9.308977
2022-10-05T01:05:25.283Z,9.309135
2022-10-05T01:06:25.306Z,9.309222
2022-10-05T01:07:25.390Z,9.309146
2022-10-05T01:08:25.283Z,9.309126
2022-10-05T01:09:25.260Z,9.309114
2022-10-05T01:10:25.248Z,9.309091
2022-10-05T01:11:25.251Z,9.309052
2022-10-05T01:12:25.329Z,9.309086
2022-10-05T01:13:25.223Z,9.308990
2022-10-05T01:14:26.138Z,9.308990
2022-10-05T01:15:25.212Z,9.308958
2022-10-05T01:16:25.268Z,9.309012
2022-10-05T01:17:25.209Z,9.309051
2022-10-05T01:18:25.257Z,9.309148
2022-10-05T01:19:25.113Z,9.309119
2022-10-05T01:20:25.085Z,9.308952
2022-10-05T01:21:26.136Z,9.309001
2022-10-05T01:22:25.090Z,9.308997
2022-10-05T01:23:25.184Z,9.308961
2022-10-05T01:24:25.207Z,9.308993
2022-10-05T01:25:25.530Z,9.308989
2022-10-05T01:26:25.161Z,9.309045
2022-10-05T01:27:25.170Z,9.309164
2022-10-05T01:28:25.556Z,9.309103
2022-10-05T01:29:25.132Z,9.309237
2022-10-05T01:30:25.124Z,9.309117
2022-10-05T01:31:25.198Z,9.309095
2022-10-05T01:32:25.107Z,9.309106
2022-10-05T01:33:25.361Z,9.309042
2022-10-05T01:34:25.068Z,9.309053
2022-10-05T01:35:25.015Z,9.308824
2022-10-05T01:36:25.073Z,9.309054
2022-10-05T01:37:24.978Z,9.309102
2022-10-05T01:38:24.982Z,9.309099
2022-10-05T01:39:25.025Z,9.309095
2022-10-05T01:40:24.991Z,9.309178
2022-10-05T01:41:24.962Z,9.309024
2022-10-05T01:42:25.044Z,9.308975
2022-10-05T01:43:25.072Z,9.309042
2022-10-05T01:44:25.049Z,9.309077
2022-10-05T01:45:25.110Z,9.309033
2022-10-05T01:46:24.983Z,9.309006
2022-10-05T01:47:24.994Z,9.308929
2022-10-05T01:48:24.993Z,9.308917
2022-10-05T01:49:24.982Z,9.308764
2022-10-05T01:50:25.024Z,9.308973
2022-10-05T01:51:24.961Z,9.308979
2022-10-05T01:52:24.965Z,9.309081
2022-10-05T01:53:24.867Z,9.308967
2022-10-05T01:54:24.845Z,9.308967
2022-10-05T01:55:24.974Z,9.308953
2022-10-05T01:56:24.844Z,9.309079
2022-10-05T01:57:24.833Z,9.308960
2022-10-05T01:58:24.822Z,9.308927
2022-10-05T01:59:24.816Z,9.308934
2022-10-05T02:00:24.812Z,9.308924
2022-10-05T02:01:24.923Z,9.308996
2022-10-05T02:02:24.923Z,9.308983
2022-10-05T02:03:24.880Z,9.309123
2022-10-05T02:04:56.395Z,9.308999
2022-10-05T02:05:26.804Z,9.308873
2022-10-05T02:06:25.006Z,9.308964
2022-10-05T02:07:24.856Z,9.309052
2022-10-05T02:08:24.952Z,9.308945
2022-10-05T02:09:24.825Z,9.309072
2022-10-05T02:10:24.837Z,9.308914
2022-10-05T02:11:24.891Z,9.309020
2022-10-05T02:12:25.692Z,9.309035
2022-10-05T02:13:24.813Z,9.308863
2022-10-05T02:14:24.723Z,9.308888
2022-10-05T02:15:24.682Z,9.309151
2022-10-05T02:16:24.746Z,9.308929
2022-10-05T02:17:24.941Z,9.309012
2022-10-05T02:18:24.764Z,9.309146
2022-10-05T02:19:24.727Z,9.308938
2022-10-05T02:20:25.726Z,9.309023
2022-10-05T02:21:24.779Z,9.309134
2022-10-05T02:22:24.773Z,9.309081
2022-10-05T02:23:24.790Z,9.308934
2022-10-05T02:24:24.746Z,9.308924
2022-10-05T02:25:24.720Z,9.309026
2022-10-05T02:26:24.790Z,9.309099
2022-10-05T02:27:24.768Z,9.309118
2022-10-05T02:28:24.789Z,9.309019
2022-10-05T02:29:24.601Z,9.309051
2022-10-05T02:30:24.596Z,9.309079
2022-10-05T02:31:24.781Z,9.309048
2022-10-05T02:32:24.592Z,9.309098
2022-10-05T02:33:24.571Z,9.309013
2022-10-05T02:34:24.769Z,9.308958
2022-10-05T02:35:24.575Z,9.308963
2022-10-05T02:36:24.701Z,9.308981
2022-10-05T02:37:24.986Z,9.309078
2022-10-05T02:38:24.616Z,9.309077
2022-10-05T02:39:24.638Z,9.309119
2022-10-05T02:40:24.622Z,9.309127
2022-10-05T02:41:24.658Z,9.309097
2022-10-05T02:42:24.571Z,9.309032
2022-10-05T02:43:24.644Z,9.309030
2022-10-05T02:44:24.558Z,9.309048
2022-10-05T02:45:24.628Z,9.309371
2022-10-05T02:46:24.666Z,9.309311
2022-10-05T02:47:24.564Z,9.309127
2022-10-05T02:48:24.469Z,9.309194
2022-10-05T02:49:24.437Z,9.309212
2022-10-05T02:50:24.635Z,9.309362
2022-10-05T02:51:24.430Z,9.309505
2022-10-05T02:52:24.425Z,9.309209
2022-10-05T02:53:24.570Z,9.309037
2022-10-05T02:54:24.512Z,9.309155
2022-10-05T02:55:24.505Z,9.309126
2022-10-05T02:56:24.432Z,9.309220
2022-10-05T02:57:24.460Z,9.309258
2022-10-05T02:58:24.454Z,9.309132
2022-10-05T02:59:24.520Z,9.308998
2022-10-05T03:00:24.989Z,9.309016
2022-10-05T03:01:24.513Z,9.308963
2022-10-05T03:02:24.490Z,9.308995
2022-10-05T03:03:24.403Z,9.309067
2022-10-05T03:04:24.313Z,9.309227
2022-10-05T03:05:24.322Z,9.309181
2022-10-05T03:06:24.422Z,9.309041
2022-10-05T03:07:24.468Z,9.309089
2022-10-05T03:08:24.375Z,9.308988
2022-10-05T03:09:24.501Z,9.308956
2022-10-05T03:10:24.376Z,9.308965
2022-10-05T03:11:24.479Z,9.308967
2022-10-05T03:12:24.415Z,9.309076
2022-10-05T03:13:24.442Z,9.309028
2022-10-05T03:14:24.349Z,9.309063
2022-10-05T03:15:24.363Z,9.309055
2022-10-05T03:16:24.376Z,9.308986
2022-10-05T03:17:24.250Z,9.309145
2022-10-05T03:18:27.417Z,9.309063
2022-10-05T03:19:26.225Z,9.308995
2022-10-05T03:20:24.268Z,9.308917
2022-10-05T03:21:24.231Z,9.308987
2022-10-05T03:22:24.209Z,9.308892
2022-10-05T03:23:24.213Z,9.308970
2022-10-05T03:24:24.180Z,9.308953
2022-10-05T03:25:24.181Z,9.308989
2022-10-05T03:26:24.304Z,9.308989
2022-10-05T03:27:24.242Z,9.308991
2022-10-05T03:28:24.430Z,9.309030
2022-10-05T03:29:24.233Z,9.308987
2022-10-05T03:30:24.251Z,9.309014
2022-10-05T03:31:24.267Z,9.308976
2022-10-05T03:32:25.183Z,9.308911
2022-10-05T03:33:24.211Z,9.309010
2022-10-05T03:34:24.273Z,9.309052
2022-10-05T03:35:24.197Z,9.309079
2022-10-05T03:36:24.112Z,9.309065
2022-10-05T03:37:24.107Z,9.308969
2022-10-05T03:38:24.140Z,9.309029
2022-10-05T03:39:24.184Z,9.308970
2022-10-05T03:40:24.116Z,9.308992
2022-10-05T03:41:24.060Z,9.309003
2022-10-05T03:42:24.084Z,9.308996
2022-10-05T03:43:31.357Z,9.309002
2022-10-05T03:44:24.075Z,9.308951
2022-10-05T03:45:24.110Z,9.308894
2022-10-05T03:46:24.207Z,9.308964
2022-10-05T03:47:24.129Z,9.308961
2022-10-05T03:48:24.076Z,9.308969
2022-10-05T03:49:24.134Z,9.308994
2022-10-05T03:50:24.139Z,9.309019
2022-10-05T03:51:24.099Z,9.308998
2022-10-05T03:52:24.079Z,9.309004
2022-10-05T03:53:24.091Z,9.308959
2022-10-05T03:54:24.154Z,9.308932
2022-10-05T03:55:24.113Z,9.309003
2022-10-05T03:56:23.976Z,9.309010
2022-10-05T03:57:25.104Z,9.308927
2022-10-05T03:58:23.963Z,9.308949
2022-10-05T03:59:25.243Z,9.308905
2022-10-05T04:00:24.006Z,9.308865
2022-10-05T04:01:23.995Z,9.308974
2022-10-05T04:02:23.998Z,9.308930
2022-10-05T04:03:23.932Z,9.308990
2022-10-05T04:04:23.981Z,9.309082
2022-10-05T04:05:23.973Z,9.309029
2022-10-05T04:06:24.026Z,9.309031
2022-10-05T04:07:23.984Z,9.309043
2022-10-05T04:08:23.953Z,9.308942
2022-10-05T04:09:23.977Z,9.308964
2022-10-05T04:10:24.021Z,9.308839
2022-10-05T04:11:23.945Z,9.308851
2022-10-05T04:12:24.003Z,9.308969
2022-10-05T04:13:23.903Z,9.308979
2022-10-05T04:14:23.843Z,9.308894
2022-10-05T04:15:23.817Z,9.308931
2022-10-05T04:16:23.855Z,9.308992
2022-10-05T04:17:23.853Z,9.309028
2022-10-05T04:18:23.839Z,9.308951
2022-10-05T04:19:23.776Z,9.308893
2022-10-05T04:20:23.796Z,9.308939
2022-10-05T04:21:24.183Z,9.309048
2022-10-05T04:22:24.861Z,9.309011
2022-10-05T04:23:23.795Z,9.308978
2022-10-05T04:24:23.810Z,9.308978
2022-10-05T04:25:23.922Z,9.309043
2022-10-05T04:26:23.845Z,9.308903
2022-10-05T04:27:23.820Z,9.309054
2022-10-05T04:28:26.999Z,9.308936
2022-10-05T04:29:24.843Z,9.308991
2022-10-05T04:30:23.807Z,9.308896
2022-10-05T04:31:23.933Z,9.309027
2022-10-05T04:32:23.825Z,9.308988
2022-10-05T04:33:23.834Z,9.308959
2022-10-05T04:34:24.004Z,9.308986
2022-10-05T04:35:23.681Z,9.309043
2022-10-05T04:36:23.687Z,9.309073
2022-10-05T04:37:23.784Z,9.309101
2022-10-05T04:38:23.646Z,9.309105
2022-10-05T04:39:24.673Z,9.309124
2022-10-05T04:40:23.660Z,9.309084
2022-10-05T04:41:23.621Z,9.309096
2022-10-05T04:42:23.770Z,9.309095
2022-10-05T04:43:23.791Z,9.309076
2022-10-05T04:44:24.923Z,9.309035
2022-10-05T04:45:23.776Z,9.309054
2022-10-05T04:46:23.782Z,9.309064
2022-10-05T04:47:23.758Z,9.309036
2022-10-05T04:48:23.729Z,9.309078
2022-10-05T04:49:24.193Z,9.309072
2022-10-05T04:50:23.716Z,9.309094
2022-10-05T04:51:23.704Z,9.309133
2022-10-05T04:52:23.563Z,9.309086
2022-10-05T04:53:23.574Z,9.309173
2022-10-05T04:54:24.171Z,9.309201
2022-10-05T04:55:23.577Z,9.309215
2022-10-05T04:56:23.573Z,9.309132
2022-10-05T04:57:23.601Z,9.309102
2022-10-05T04:58:23.632Z,9.309150
2022-10-05T04:59:23.666Z,9.309118
2022-10-05T05:00:23.709Z,9.309061
2022-10-05T05:01:23.658Z,9.309011
2022-10-05T05:02:23.716Z,9.309003
2022-10-05T05:03:23.603Z,9.309053
2022-10-05T05:04:23.644Z,9.309099
2022-10-05T05:05:23.568Z,9.309129
2022-10-05T05:06:23.502Z,9.309084
2022-10-05T05:07:23.438Z,9.309044
2022-10-05T05:08:23.541Z,9.308974
2022-10-05T05:09:23.457Z,9.309011
2022-10-05T05:10:23.479Z,9.309128
2022-10-05T05:11:24.713Z,9.309123
2022-10-05T05:12:24.439Z,9.309103
2022-10-05T05:13:23.443Z,9.309101
2022-10-05T05:14:23.522Z,9.309050
2022-10-05T05:15:23.486Z,9.308981
2022-10-05T05:16:23.628Z,9.309063
2022-10-05T05:17:23.446Z,9.309032
2022-10-05T05:18:23.464Z,9.309009
2022-10-05T05:19:23.439Z,9.309029
2022-10-05T05:20:23.432Z,9.309032
2022-10-05T05:21:23.477Z,9.309007
2022-10-05T05:22:23.502Z,9.309018
2022-10-05T05:23:24.212Z,9.309002
2022-10-05T05:24:23.412Z,9.308975
2022-10-05T05:25:23.318Z,9.309061
2022-10-05T05:26:23.307Z,9.309006
2022-10-05T05:27:23.399Z,9.309001
2022-10-05T05:28:23.319Z,9.308999
2022-10-05T05:29:23.300Z,9.309025
2022-10-05T05:30:23.370Z,9.309030
2022-10-05T05:31:23.380Z,9.308992
2022-10-05T05:32:23.276Z,9.309093
2022-10-05T05:33:23.439Z,9.309057
2022-10-05T05:34:23.365Z,9.309072
2022-10-05T05:35:23.358Z,9.309124
2022-10-05T05:36:23.691Z,9.309115
2022-10-05T05:37:24.316Z,9.309143
2022-10-05T05:38:23.336Z,9.309048
2022-10-05T05:39:23.301Z,9.309057
2022-10-05T05:40:23.402Z,9.308981
2022-10-05T05:41:23.208Z,9.309176
2022-10-05T05:42:23.250Z,9.309188
2022-10-05T05:43:23.177Z,9.309097
2022-10-05T05:44:24.351Z,9.309105
2022-10-05T05:45:23.147Z,9.309045
2022-10-05T05:46:34.175Z,9.309039
2022-10-05T05:47:25.236Z,9.309096
2022-10-05T05:48:23.151Z,9.309146
2022-10-05T05:49:23.665Z,9.309073
2022-10-05T05:50:23.219Z,9.309045
2022-10-05T05:51:23.202Z,9.309134
2022-10-05T05:52:23.235Z,9.309164
2022-10-05T05:53:23.198Z,9.309085
2022-10-05T05:54:23.182Z,9.309064
2022-10-05T05:55:27.632Z,9.309082
2022-10-05T05:56:25.116Z,9.309112
2022-10-05T05:57:23.169Z,9.309061
2022-10-05T05:58:23.172Z,9.309013
2022-10-05T05:59:23.145Z,9.309103
2022-10-05T06:00:23.088Z,9.309281
2022-10-05T06:01:32.562Z,9.309234
2022-10-05T06:02:25.140Z,9.309184
2022-10-05T06:03:23.138Z,9.309255
2022-10-05T06:04:23.042Z,9.309133
2022-10-05T06:05:23.031Z,9.309072
2022-10-05T06:06:23.097Z,9.308903
2022-10-05T06:07:25.688Z,9.309102
2022-10-05T06:08:25.036Z,9.309199
2022-10-05T06:09:23.038Z,9.309111
2022-10-05T06:10:23.091Z,9.308815
2022-10-05T06:11:23.097Z,9.308995
2022-10-05T06:12:23.077Z,9.309093
2022-10-05T06:13:23.121Z,9.309044
2022-10-05T06:14:23.058Z,9.309096
2022-10-05T06:15:23.061Z,9.309005
2022-10-05T06:16:23.096Z,9.309006
2022-10-05T06:17:24.068Z,9.308999
2022-10-05T06:18:23.016Z,9.309023
2022-10-05T06:19:23.031Z,9.309077
2022-10-05T06:20:23.037Z,9.309081
2022-10-05T06:21:23.001Z,9.309063
2022-10-05T06:22:22.968Z,9.309212
2022-10-05T06:23:22.907Z,9.309184
2022-10-05T06:24:23.024Z,9.309206
2022-10-05T06:25:22.949Z,9.309144
2022-10-05T06:26:22.979Z,9.309154
2022-10-05T06:27:22.950Z,9.308998
2022-10-05T06:28:24.109Z,9.308946
2022-10-05T06:29:22.959Z,9.309094
2022-10-05T06:30:22.966Z,9.309048
2022-10-05T06:31:22.960Z,9.309091
2022-10-05T06:32:22.994Z,9.309032
2022-10-05T06:33:22.987Z,9.309181
2022-10-05T06:34:22.920Z,9.309079
2022-10-05T06:35:22.919Z,9.309050
2022-10-05T06:36:23.273Z,9.309071
2022-10-05T06:37:22.844Z,9.309053
2022-10-05T06:38:22.788Z,9.309080
2022-10-05T06:39:22.923Z,9.309047
2022-10-05T06:40:22.868Z,9.309076
2022-10-05T06:41:22.864Z,9.309050
2022-10-05T06:42:22.861Z,9.309066
2022-10-05T06:43:22.927Z,9.309056
2022-10-05T06:44:22.906Z,9.309033
2022-10-05T06:45:22.850Z,9.309061
2022-10-05T06:46:22.954Z,9.309082
2022-10-05T06:47:22.818Z,9.309076
2022-10-05T06:48:22.810Z,9.309070
2022-10-05T06:49:22.828Z,9.309087
2022-10-05T06:50:23.236Z,9.309089
2022-10-05T06:51:22.820Z,9.309094
2022-10-05T06:52:22.733Z,9.309046
2022-10-05T06:53:22.727Z,9.309052
2022-10-05T06:54:22.661Z,9.309101
2022-10-05T06:55:22.913Z,9.309034
2022-10-05T06:56:22.714Z,9.309007
2022-10-05T06:57:22.767Z,9.309007
2022-10-05T06:58:22.768Z,9.308992
2022-10-05T06:59:22.755Z,9.308999
2022-10-05T07:00:22.766Z,9.309049
2022-10-05T07:01:22.822Z,9.308981
2022-10-05T07:02:22.808Z,9.309161
2022-10-05T07:03:22.712Z,9.309159
2022-10-05T07:04:22.751Z,9.309040
2022-10-05T07:05:22.842Z,9.309116
2022-10-05T07:06:22.781Z,9.309052
2022-10-05T07:07:22.720Z,9.309015
2022-10-05T07:08:22.611Z,9.308988
2022-10-05T07:09:22.602Z,9.309015
2022-10-05T07:10:22.676Z,9.309011
2022-10-05T07:11:22.621Z,9.308918
2022-10-05T07:12:22.642Z,9.308924
2022-10-05T07:13:22.714Z,9.308975
2022-10-05T07:14:22.672Z,9.309001
2022-10-05T07:15:22.662Z,9.308986
2022-10-05T07:16:22.720Z,9.309071
2022-10-05T07:17:22.628Z,9.309037
2022-10-05T07:18:22.680Z,9.309067
2022-10-05T07:19:22.589Z,9.308953
2022-10-05T07:20:22.624Z,9.308972
2022-10-05T07:21:22.574Z,9.309061
2022-10-05T07:22:22.573Z,9.309045
2022-10-05T07:23:22.604Z,9.308934
2022-10-05T07:24:22.536Z,9.308953
2022-10-05T07:25:22.584Z,9.308909
2022-10-05T07:26:22.523Z,9.308863
2022-10-05T07:27:22.446Z,9.308985
2022-10-05T07:28:22.631Z,9.309001
2022-10-05T07:29:22.541Z,9.308900
2022-10-05T07:30:22.521Z,9.308938
2022-10-05T07:31:22.598Z,9.308958
2022-10-05T07:32:22.527Z,9.309134
2022-10-05T07:33:22.542Z,9.308999
2022-10-05T07:34:22.516Z,9.309148
2022-10-05T07:35:22.505Z,9.308956
2022-10-05T07:36:22.481Z,9.308901
2022-10-05T07:37:22.548Z,9.308952
2022-10-05T07:38:22.535Z,9.308960
2022-10-05T07:39:23.536Z,9.309074
2022-10-05T07:40:22.911Z,9.309043
2022-10-05T07:41:22.496Z,9.308986
2022-10-05T07:42:22.430Z,9.308936
2022-10-05T07:43:22.367Z,9.308909
2022-10-05T07:44:22.351Z,9.308849
2022-10-05T07:45:22.339Z,9.308866
2022-10-05T07:46:22.434Z,9.308804
2022-10-05T07:47:22.319Z,9.308804
2022-10-05T07:48:22.347Z,9.308878
2022-10-05T07:49:22.341Z,9.308899
2022-10-05T07:50:22.588Z,9.308900
2022-10-05T07:51:22.367Z,9.309027
2022-10-05T07:52:22.324Z,9.309022
2022-10-05T07:53:22.370Z,9.308918
2022-10-05T07:54:22.344Z,9.308939
2022-10-05T07:55:22.363Z,9.309134
2022-10-05T07:56:22.385Z,9.309063
2022-10-05T07:57:22.295Z,9.308996
2022-10-05T07:58:22.428Z,9.308865
2022-10-05T07:59:22.305Z,9.308891
2022-10-05T08:00:22.495Z,9.308832
2022-10-05T08:01:22.352Z,9.308721
2022-10-05T08:02:22.531Z,9.308784
2022-10-05T08:03:22.351Z,9.308815
2022-10-05T08:04:22.272Z,9.308908
2022-10-05T08:05:22.285Z,9.309089
2022-10-05T08:06:22.146Z,9.309023
2022-10-05T08:08:22.195Z,9.308955
2022-10-05T08:09:22.248Z,9.308916
2022-10-05T08:10:23.202Z,9.309006
2022-10-05T08:11:22.210Z,9.309088
2022-10-05T08:12:22.329Z,9.309061
2022-10-05T08:13:22.209Z,9.309082
2022-10-05T08:14:22.200Z,9.309005
2022-10-05T08:15:22.188Z,9.308923
2022-10-05T08:16:22.260Z,9.308882
2022-10-05T08:17:25.485Z,9.308909
2022-10-05T08:18:23.219Z,9.308961
2022-10-05T08:19:22.203Z,9.309100
2022-10-05T08:20:22.173Z,9.308992
2022-10-05T08:21:22.053Z,9.308936
2022-10-05T08:22:22.066Z,9.309091
2022-10-05T08:23:22.028Z,9.309042
2022-10-05T08:24:22.255Z,9.309053
2022-10-05T08:25:22.144Z,9.308980
2022-10-05T08:26:22.163Z,9.309039
2022-10-05T08:27:22.189Z,9.309075
2022-10-05T08:28:22.182Z,9.308983
2022-10-05T08:29:22.228Z,9.308990
2022-10-05T08:30:22.092Z,9.309024
2022-10-05T08:31:22.156Z,9.309043
2022-10-05T08:32:22.066Z,9.309049
2022-10-05T08:33:22.060Z,9.308990
2022-10-05T08:34:22.052Z,9.309053
2022-10-05T08:35:22.100Z,9.309018
2022-10-05T08:36:22.036Z,9.309065
2022-10-05T08:37:22.031Z,9.309101
2022-10-05T08:38:21.988Z,9.309114
2022-10-05T08:39:21.965Z,9.309116
2022-10-05T08:40:21.946Z,9.309095
2022-10-05T08:41:21.982Z,9.309055
2022-10-05T08:42:21.944Z,9.309072
2022-10-05T08:43:21.949Z,9.309067
2022-10-05T08:44:21.929Z,9.309085
2022-10-05T08:45:21.923Z,9.309155
2022-10-05T08:46:22.004Z,9.309153
2022-10-05T08:47:21.986Z,9.309111
2022-10-05T08:48:21.975Z,9.309086
2022-10-05T08:49:21.941Z,9.309115
2022-10-05T08:50:21.943Z,9.309093
2022-10-05T08:51:22.179Z,9.309072
2022-10-05T08:52:22.016Z,9.309117
2022-10-05T08:53:21.981Z,9.309126
2022-10-05T08:54:21.907Z,9.309079
2022-10-05T08:55:21.894Z,9.309057
2022-10-05T08:56:26.367Z,9.309029
2022-10-05T08:57:24.055Z,9.309059
2022-10-05T08:58:21.963Z,9.309005
2022-10-05T08:59:21.836Z,9.309046
2022-10-05T09:00:21.866Z,9.309077
2022-10-05T09:01:22.040Z,9.309027
2022-10-05T09:02:21.905Z,9.309102
2022-10-05T09:03:21.831Z,9.309079
2022-10-05T09:04:21.841Z,9.309099
2022-10-05T09:05:21.778Z,9.309031
2022-10-05T09:06:21.748Z,9.309077
2022-10-05T09:07:21.754Z,9.309052
2022-10-05T09:08:21.798Z,9.309038
2022-10-05T09:09:21.743Z,9.309104
2022-10-05T09:10:21.755Z,9.309130
2022-10-05T09:11:21.769Z,9.309103
2022-10-05T09:12:21.803Z,9.309104
2022-10-05T09:13:21.822Z,9.309019
2022-10-05T09:14:21.767Z,9.309066
2022-10-05T09:15:25.766Z,9.309029
2022-10-05T09:16:22.922Z,9.309016
2022-10-05T09:17:21.733Z,9.309033
2022-10-05T09:18:21.727Z,9.309043
2022-10-05T09:19:21.767Z,9.309042
2022-10-05T09:20:21.718Z,9.309063
2022-10-05T09:21:21.768Z,9.309072
2022-10-05T09:22:21.810Z,9.309055
2022-10-05T09:23:21.700Z,9.309078
2022-10-05T09:24:21.675Z,9.309079
2022-10-05T09:25:21.588Z,9.309099
2022-10-05T09:26:21.688Z,9.309024
2022-10-05T09:27:21.684Z,9.309045
2022-10-05T09:28:21.921Z,9.309107
2022-10-05T09:29:21.633Z,9.309088
2022-10-05T09:30:21.708Z,9.309063
2022-10-05T09:31:21.698Z,9.309074
2022-10-05T09:32:21.622Z,9.309004
2022-10-05T09:33:21.619Z,9.308945
2022-10-05T09:34:21.659Z,9.308972
2022-10-05T09:35:21.773Z,9.308982
2022-10-05T09:36:21.705Z,9.309036
2022-10-05T09:37:21.635Z,9.309008
2022-10-05T09:38:21.593Z,9.309055
2022-10-05T09:39:21.582Z,9.309133
2022-10-05T09:40:21.648Z,9.309152
2022-10-05T09:41:21.604Z,9.309260
2022-10-05T09:42:21.451Z,9.309184
2022-10-05T09:43:21.465Z,9.309129
2022-10-05T09:44:21.552Z,9.309087
2022-10-05T09:45:21.718Z,9.309107
2022-10-05T09:46:22.701Z,9.309045
2022-10-05T09:47:21.439Z,9.308980
2022-10-05T09:48:21.542Z,9.309060
2022-10-05T09:49:21.578Z,9.309062
2022-10-05T09:50:21.604Z,9.309060
2022-10-05T09:51:21.612Z,9.309112
2022-10-05T09:52:21.496Z,9.309131
2022-10-05T09:53:21.548Z,9.309075
2022-10-05T09:54:21.526Z,9.309083
2022-10-05T09:55:21.445Z,9.309043
2022-10-05T09:56:21.513Z,9.309111
2022-10-05T09:57:21.604Z,9.309071
2022-10-05T09:58:21.510Z,9.309064
2022-10-05T09:59:21.435Z,9.309098
2022-10-05T10:00:21.442Z,9.309088
2022-10-05T10:01:33.085Z,9.309090
2022-10-05T10:02:23.487Z,9.309077
2022-10-05T10:03:21.409Z,9.309044
2022-10-05T10:04:21.338Z,9.309073
2022-10-05T10:05:21.399Z,9.309071
2022-10-05T10:06:21.310Z,9.309050
2022-10-05T10:07:21.355Z,9.309048
2022-10-05T10:08:21.280Z,9.309016
2022-10-05T10:09:21.331Z,9.309033
2022-10-05T10:10:21.303Z,9.309040
2022-10-05T10:11:21.364Z,9.309023
2022-10-05T10:12:21.428Z,9.309057
2022-10-05T10:13:21.409Z,9.309088
2022-10-05T10:14:21.317Z,9.309097
2022-10-05T10:15:21.438Z,9.309051
2022-10-05T10:16:21.431Z,9.309059
2022-10-05T10:17:21.323Z,9.309104
2022-10-05T10:18:21.342Z,9.309103
2022-10-05T10:19:21.251Z,9.309124
2022-10-05T10:20:21.300Z,9.309172
2022-10-05T10:21:21.176Z,9.309113
2022-10-05T10:22:21.278Z,9.309029
2022-10-05T10:23:21.218Z,9.309087
2022-10-05T10:24:21.199Z,9.309031
2022-10-05T10:25:21.284Z,9.309044
2022-10-05T10:26:21.162Z,9.309072
2022-10-05T10:27:21.302Z,9.309057
2022-10-05T10:28:21.364Z,9.309068
2022-10-05T10:29:21.295Z,9.309040
2022-10-05T10:30:22.486Z,9.309065
2022-10-05T10:31:21.274Z,9.309056
2022-10-05T10:32:21.278Z,9.309048
2022-10-05T10:33:21.240Z,9.309114
2022-10-05T10:34:21.327Z,9.309108
2022-10-05T10:35:21.401Z,9.309074
2022-10-05T10:36:21.166Z,9.309094
2022-10-05T10:37:21.175Z,9.309072
2022-10-05T10:38:21.176Z,9.309094
2022-10-05T10:39:21.177Z,9.309078
2022-10-05T10:40:21.205Z,9.309189
2022-10-05T10:41:21.169Z,9.309132
2022-10-05T10:42:26.010Z,9.309144
2022-10-05T10:43:23.219Z,9.309107
2022-10-05T10:44:21.219Z,9.309110
2022-10-05T10:45:21.172Z,9.309098
2022-10-05T10:46:21.182Z,9.309104
2022-10-05T10:47:21.088Z,9.309139
2022-10-05T10:48:21.097Z,9.309121
2022-10-05T10:49:21.078Z,9.309105
2022-10-05T10:50:21.122Z,9.309126
2022-10-05T10:51:20.969Z,9.309106
2022-10-05T10:52:21.008Z,9.309146
2022-10-05T10:53:21.013Z,9.309138
2022-10-05T10:54:21.054Z,9.309157
2022-10-05T10:55:21.109Z,9.309160
2022-10-05T10:56:21.118Z,9.309190
2022-10-05T10:57:21.145Z,9.309218
2022-10-05T10:58:21.215Z,9.309196
2022-10-05T10:59:21.023Z,9.309166
2022-10-05T11:00:20.999Z,9.309183
2022-10-05T11:01:21.519Z,9.309191
2022-10-05T11:02:21.152Z,9.309122
2022-10-05T11:03:20.975Z,9.309138
2022-10-05T11:04:21.049Z,9.309121
2022-10-05T11:05:21.030Z,9.309136
2022-10-05T11:06:21.017Z,9.309127
2022-10-05T11:07:21.023Z,9.309059
2022-10-05T11:08:20.973Z,9.309036
2022-10-05T11:09:20.988Z,9.309017
2022-10-05T11:10:20.996Z,9.309083
2022-10-05T11:11:20.992Z,9.309023
2022-10-05T11:12:21.044Z,9.309003
2022-10-05T11:13:21.005Z,9.309112
2022-10-05T11:14:21.043Z,9.309037
2022-10-05T11:15:20.937Z,9.309093
2022-10-05T11:16:20.944Z,9.309098
2022-10-05T11:17:21.980Z,9.309067
2022-10-05T11:18:20.901Z,9.309110
2022-10-05T11:19:20.906Z,9.309092
2022-10-05T11:20:20.903Z,9.309091
2022-10-05T11:21:20.872Z,9.309014
2022-10-05T11:22:20.891Z,9.308975
2022-10-05T11:23:20.946Z,9.309155
2022-10-05T11:24:20.862Z,9.309160
2022-10-05T11:25:20.995Z,9.309009
2022-10-05T11:26:21.057Z,9.308923
2022-10-05T11:28:20.879Z,9.308982
2022-10-05T11:29:20.939Z,9.308971
2022-10-05T11:30:20.916Z,9.309029
2022-10-05T11:31:20.948Z,9.309036
2022-10-05T11:32:20.822Z,9.309133
2022-10-05T11:33:20.903Z,9.309371
2022-10-05T11:34:20.834Z,9.309115
2022-10-05T11:35:20.738Z,9.309079
2022-10-05T11:36:20.911Z,9.309091
2022-10-05T11:37:20.949Z,9.308968
2022-10-05T11:38:20.767Z,9.309001
2022-10-05T11:39:20.940Z,9.308975
2022-10-05T11:40:20.937Z,9.309041
2022-10-05T11:41:20.715Z,9.309121
2022-10-05T11:42:20.868Z,9.308934
2022-10-05T11:43:20.815Z,9.308942
2022-10-05T11:44:20.920Z,9.308989
2022-10-05T11:45:20.991Z,9.308982
2022-10-05T11:46:20.749Z,9.308996